Time;durP1;ratioP1;P1;durP2;ratioP2;P2;SDS_P1;SDS_P2;PMS_P1;PMS_P2;Temp;Humidity;BMP_temperature;BMP_pressure;BME280_temperature;BME280_humidity;BME280_pressure;Samples;Min_cycle;Max_cycle;Signal;HPM_P1;HPM_P2
2023/04/09 00:01:23;;;;;;;36.33;21.50;;;7.80;60.30;;;3.01;100.00;96027.38;5015173;28;20033;-50
2023/04/09 00:03:49;;;;;;;36.65;22.40;;;7.80;60.50;;;2.99;100.00;96016.25;5012546;28;20395;-48
2023/04/09 00:06:15;;;;;;;34.50;20.95;;;7.70;60.70;;;3.08;100.00;96018.66;5015133;28;20032;-51
2023/04/09 00:08:41;;;;;;;35.95;22.27;;;7.70;60.80;;;3.08;100.00;96019.47;5013968;28;20104;-49
2023/04/09 00:11:06;;;;;;;37.67;22.95;;;7.70;61.00;;;3.11;100.00;96021.69;5015174;28;20166;-48
2023/04/09 00:13:32;;;;;;;35.90;22.23;;;7.70;61.20;;;3.17;100.00;96027.97;5030107;28;20417;-48
2023/04/09 00:15:58;;;;;;;36.05;22.90;;;7.80;61.40;;;3.17;100.00;96015.59;5014237;28;20032;-47
2023/04/09 00:18:24;;;;;;;35.38;22.45;;;7.80;61.50;;;3.20;100.00;96015.19;5014775;28;20055;-48
2023/04/09 00:20:50;;;;;;;33.95;21.58;;;7.80;61.60;;;3.25;100.00;96015.34;5014040;28;20028;-48
2023/04/09 00:23:16;;;;;;;33.85;20.77;;;7.80;61.70;;;3.29;100.00;96010.50;5014947;28;20526;-49
2023/04/09 00:25:41;;;;;;;38.40;22.60;;;7.80;61.70;;;3.30;100.00;96008.69;5014818;28;20040;-50
2023/04/09 00:28:07;;;;;;;40.83;24.75;;;7.80;61.70;;;3.29;100.00;96005.25;5013929;28;20033;-52
2023/04/09 00:30:33;;;;;;;36.63;22.38;;;7.90;61.80;;;3.24;100.00;96010.31;5014818;28;20411;-48
2023/04/09 00:32:59;;;;;;;38.40;21.95;;;7.90;61.70;;;3.26;100.00;96000.41;5013612;28;20025;-49
2023/04/09 00:35:25;;;;;;;35.25;22.52;;;7.90;61.80;;;3.27;100.00;95996.72;5014552;28;20024;-51
2023/04/09 00:37:51;;;;;;;38.63;21.92;;;7.90;61.80;;;3.25;100.00;96004.03;5014563;28;20032;-48
2023/04/09 00:40:17;;;;;;;36.17;22.45;;;7.90;61.80;;;3.29;100.00;95999.16;5013834;28;20503;-48
2023/04/09 00:42:42;;;;;;;36.55;23.15;;;7.90;61.90;;;3.27;100.00;95999.38;5014763;28;20064;-47
2023/04/09 00:45:09;;;;;;;35.65;22.65;;;7.90;62.00;;;3.34;100.00;96000.16;5013624;28;20021;-49
2023/04/09 00:47:35;;;;;;;38.05;22.50;;;7.90;62.10;;;3.37;100.00;95999.72;5029496;28;20104;-48
2023/04/09 00:50:02;;;;;;;34.92;22.95;;;8.00;62.10;;;3.32;100.00;95999.56;5012305;28;20102;-48
2023/04/09 00:52:29;;;;;;;35.00;22.73;;;8.00;62.20;;;3.37;100.00;96002.34;5014093;28;20037;-47
2023/04/09 00:54:59;;;;;;;35.17;22.05;;;8.00;62.30;;;3.40;100.00;96004.56;5014385;28;20013;-47
2023/04/09 00:57:25;;;;;;;33.75;22.27;;;8.00;62.30;;;3.40;100.00;95994.03;5011962;28;20045;-47
2023/04/09 00:59:51;;;;;;;36.05;22.17;;;8.00;62.10;;;3.37;100.00;95996.28;5014172;28;20021;-49
2023/04/09 01:02:17;;;;;;;37.88;21.70;;;8.00;62.10;;;3.39;100.00;95996.91;5013110;28;20060;-47
2023/04/09 01:04:45;;;;;;;33.42;21.60;;;8.00;62.10;;;3.34;100.00;95996.69;5013987;28;20032;-48
2023/04/09 01:07:46;;;;;;;33.45;21.73;;;8.00;62.10;;;3.35;100.00;95993.84;5013119;28;20412;-47
2023/04/09 01:10:31;;;;;;;32.45;21.80;;;8.00;62.30;;;3.28;100.00;95994.91;5013223;28;20036;-49
2023/04/09 01:13:34;;;;;;;32.70;21.30;;;8.00;62.30;;;3.29;100.00;95985.97;5012554;28;20094;-47
2023/04/09 01:16:03;;;;;;;42.88;21.67;;;8.00;62.40;;;3.31;100.00;95990.03;5000064;28;20033;-47
2023/04/09 01:19:01;;;;;;;33.30;21.48;;;8.00;62.30;;;3.30;100.00;95979.72;5012648;28;20033;-47
2023/04/09 01:21:34;;;;;;;33.88;21.88;;;8.00;62.40;;;3.27;100.00;95983.56;5001076;28;20385;-47
2023/04/09 01:25:13;;;;;;;35.63;23.42;;;7.90;62.20;;;3.25;100.00;95986.41;4994172;28;20423;-47
2023/04/09 01:28:39;;;;;;;35.63;22.95;;;7.90;62.20;;;3.21;100.00;95987.03;4988743;28;20041;-49
2023/04/09 01:31:37;;;;;;;35.25;22.13;;;7.90;62.30;;;3.17;100.00;95989.28;4988415;28;20448;-50
2023/04/09 01:34:07;;;;;;;35.75;21.45;;;7.90;62.30;;;3.20;100.00;95985.44;5006822;28;20061;-47
2023/04/09 01:36:38;;;;;;;35.58;22.27;;;7.80;62.20;;;3.14;100.00;95988.88;5012545;28;20021;-48
2023/04/09 01:39:06;;;;;;;39.72;23.95;;;7.80;62.20;;;3.12;100.00;95986.44;5012767;28;20109;-48
2023/04/09 01:41:35;;;;;;;44.72;26.25;;;7.80;62.20;;;3.11;100.00;95986.66;5013259;28;20072;-49
2023/04/09 01:44:04;;;;;;;40.60;24.98;;;7.80;62.30;;;3.08;100.00;95985.25;5011056;28;20021;-50
2023/04/09 01:46:33;;;;;;;37.88;23.88;;;7.70;62.30;;;3.03;100.00;95990.31;5003405;28;20024;-48
2023/04/09 01:49:01;;;;;;;41.83;24.70;;;7.70;62.40;;;2.99;100.00;95994.38;5012153;28;20104;-48
2023/04/09 01:51:30;;;;;;;44.78;25.70;;;7.70;62.40;;;2.92;100.00;95991.78;5010870;28;20503;-47
2023/04/09 01:53:56;;;;;;;50.60;28.20;;;7.60;63.20;;;2.93;100.00;95996.03;5012884;28;20039;-51
2023/04/09 01:56:22;;;;;;;48.28;27.77;;;7.60;62.60;;;2.93;100.00;95995.22;5010688;28;20132;-47
2023/04/09 01:58:48;;;;;;;49.67;28.27;;;7.60;62.80;;;2.93;100.00;95992.59;5012980;28;20033;-48
2023/04/09 02:01:28;;;;;;;47.25;26.90;;;7.60;63.00;;;2.98;100.00;95998.84;5012982;28;20022;-47
2023/04/09 02:04:02;;;;;;;47.92;28.73;;;7.60;63.30;;;3.01;100.00;95995.00;5011160;28;20063;-47
2023/04/09 02:07:33;;;;;;;53.15;28.65;;;7.60;63.40;;;3.01;100.00;95992.38;5013011;28;20029;-48
2023/04/09 02:10:01;;;;;;;48.83;27.70;;;7.70;63.60;;;3.00;100.00;95990.72;5011221;28;20041;-47
2023/04/09 02:12:35;;;;;;;46.97;27.55;;;7.60;63.40;;;2.97;100.00;95991.94;5011535;28;20036;-49
2023/04/09 02:15:03;;;;;;;49.08;27.73;;;7.70;63.60;;;3.03;100.00;95995.59;5011727;28;20017;-46
2023/04/09 02:17:28;;;;;;;42.92;25.92;;;7.70;63.60;;;3.09;100.00;96000.03;5011590;28;20098;-48
2023/04/09 02:19:55;;;;;;;43.45;26.75;;;7.70;63.70;;;3.11;100.00;95995.38;5012634;28;20025;-47
2023/04/09 02:22:21;;;;;;;42.55;25.48;;;7.70;63.80;;;3.10;100.00;95993.72;5011780;28;20116;-47
2023/04/09 02:24:47;;;;;;;40.88;23.95;;;7.70;63.80;;;3.08;100.00;95992.34;5012617;28;20055;-48
2023/04/09 02:27:13;;;;;;;38.20;23.15;;;7.70;63.70;;;3.05;100.00;95988.31;5011658;28;20108;-49
2023/04/09 02:29:42;;;;;;;38.78;24.05;;;7.70;63.60;;;2.97;100.00;95991.94;5012311;28;20024;-47
2023/04/09 02:32:08;;;;;;;40.30;23.70;;;7.70;63.60;;;2.92;100.00;95986.50;5011296;28;20033;-47
2023/04/09 02:34:34;;;;;;;36.67;22.20;;;7.70;63.50;;;2.87;100.00;95988.94;5011134;28;20025;-49
2023/04/09 02:37:00;;;;;;;35.85;21.88;;;7.60;63.40;;;2.83;100.00;95986.94;5012433;28;20373;-47
2023/04/09 02:39:26;;;;;;;35.72;21.27;;;7.60;63.40;;;2.83;100.00;95994.84;5012004;28;20025;-47
2023/04/09 02:41:52;;;;;;;36.80;21.92;;;7.60;63.30;;;2.80;100.00;95990.00;5010987;28;20045;-47
2023/04/09 02:44:18;;;;;;;36.95;22.45;;;7.50;63.20;;;2.77;100.00;95992.00;5011294;28;20112;-47
2023/04/09 02:46:46;;;;;;;34.90;22.00;;;7.50;63.30;;;2.72;100.00;95988.38;5012085;28;20100;-48
2023/04/09 02:49:12;;;;;;;34.58;21.23;;;7.50;63.30;;;2.65;100.00;95987.56;5012101;28;20052;-47
2023/04/09 02:51:37;;;;;;;38.47;22.25;;;7.40;63.20;;;2.57;100.00;95988.59;5011300;28;20021;-47
2023/04/09 02:54:04;;;;;;;42.65;24.35;;;7.30;63.10;;;2.49;100.00;95988.81;5012087;28;20104;-47
2023/04/09 02:56:29;;;;;;;43.10;24.52;;;7.30;63.20;;;2.49;100.00;95994.88;5011005;28;20032;-47
2023/04/09 02:58:55;;;;;;;38.67;22.83;;;7.20;63.30;;;2.44;100.00;95991.22;5011813;28;20403;-47
2023/04/09 03:01:21;;;;;;;42.03;23.08;;;7.20;63.30;;;2.40;100.00;95982.13;5011994;28;20025;-47
2023/04/09 03:03:47;;;;;;;37.20;22.33;;;7.20;63.30;;;2.34;100.00;95981.13;5011254;28;20052;-48
2023/04/09 03:06:13;;;;;;;37.28;21.45;;;7.10;63.20;;;2.26;100.00;95982.16;5011971;28;20032;-48
2023/04/09 03:08:39;;;;;;;43.08;21.75;;;7.00;63.10;;;2.14;100.00;95980.31;5010870;28;20403;-48
2023/04/09 03:11:05;;;;;;;44.00;23.83;;;7.00;63.10;;;2.07;100.00;95981.13;5011791;28;20443;-48
2023/04/09 03:13:30;;;;;;;40.03;23.40;;;6.90;63.10;;;2.06;100.00;95979.50;5011577;28;20025;-47
2023/04/09 03:15:56;;;;;;;40.20;21.70;;;6.90;63.20;;;1.98;100.00;95976.28;5010721;28;20052;-47
2023/04/09 03:18:22;;;;;;;43.67;24.10;;;6.80;63.20;;;1.96;100.00;95973.84;5011684;28;20025;-47
2023/04/09 03:20:48;;;;;;;43.58;23.77;;;6.70;63.30;;;1.93;100.00;95970.81;5010558;28;20024;-47
2023/04/09 03:23:14;;;;;;;45.75;24.92;;;6.70;63.30;;;1.88;100.00;95970.59;5011832;28;20071;-47
2023/04/09 03:25:40;;;;;;;44.80;24.40;;;6.70;63.40;;;1.85;100.00;95971.81;5010255;28;20024;-47
2023/04/09 03:28:05;;;;;;;38.33;22.88;;;6.60;63.50;;;1.81;100.00;95971.38;5010322;28;20032;-47
2023/04/09 03:30:31;;;;;;;41.45;23.27;;;6.60;63.50;;;1.73;100.00;95968.97;5011603;28;20021;-47
2023/04/09 03:32:58;;;;;;;51.20;25.67;;;6.50;63.40;;;1.62;100.00;95970.34;5010494;28;20120;-48
2023/04/09 03:35:24;;;;;;;50.40;26.23;;;6.50;63.40;;;1.55;100.00;95966.91;5011824;28;20442;-48
2023/04/09 03:37:50;;;;;;;47.67;25.17;;;6.40;63.50;;;1.46;100.00;95975.16;5011472;28;20025;-47
2023/04/09 03:40:16;;;;;;;56.63;26.08;;;6.40;63.50;;;1.42;100.00;95973.94;5010609;28;20033;-47
2023/04/09 03:42:43;;;;;;;59.92;28.52;;;6.30;63.50;;;1.40;100.00;95971.50;5011579;28;20090;-47
2023/04/09 03:45:09;;;;;;;56.05;26.20;;;6.30;63.60;;;1.38;100.00;95973.53;5010586;28;20370;-47
2023/04/09 03:47:35;;;;;;;60.30;30.08;;;6.30;63.80;;;1.36;100.00;95978.97;5011389;28;20024;-49
2023/04/09 03:50:02;;;;;;;61.70;28.17;;;6.20;64.00;;;1.41;100.00;95974.94;5010954;28;20017;-51
2023/04/09 03:52:28;;;;;;;56.65;27.85;;;6.30;64.20;;;1.43;100.00;95984.22;5011174;28;20032;-47
2023/04/09 03:54:54;;;;;;;66.20;28.98;;;6.30;64.30;;;1.50;100.00;95979.00;5011464;28;20477;-47
2023/04/09 03:57:19;;;;;;;73.18;31.75;;;6.40;64.50;;;1.57;100.00;95974.59;5009936;28;20495;-47
2023/04/09 03:59:45;;;;;;;59.40;27.52;;;6.40;64.50;;;1.63;100.00;95979.06;5011383;28;20044;-47
2023/04/09 04:02:11;;;;;;;56.88;27.85;;;6.50;64.60;;;1.69;100.00;95978.22;4998782;28;20032;-47
2023/04/09 04:04:37;;;;;;;51.80;27.55;;;6.60;64.70;;;1.76;100.00;95975.63;5010851;28;20055;-47
2023/04/09 04:07:03;;;;;;;54.88;27.27;;;6.70;64.70;;;1.82;100.00;95980.09;4993802;28;20163;-47
2023/04/09 04:09:29;;;;;;;61.72;31.52;;;6.70;64.70;;;1.99;100.00;95983.13;5002389;28;20025;-49
2023/04/09 04:11:57;;;;;;;62.60;30.50;;;6.80;64.70;;;2.12;100.00;95967.38;5010823;28;20082;-47
2023/04/09 04:14:23;;;;;;;73.45;32.30;;;6.90;65.00;;;2.23;100.00;95977.28;5010181;28;20387;-47
2023/04/09 04:16:49;;;;;;;72.65;35.30;;;7.00;65.10;;;2.43;100.00;95977.28;5010553;28;20025;-47
2023/04/09 04:19:15;;;;;;;61.28;30.75;;;7.10;65.30;;;2.55;100.00;95977.47;4997278;28;20369;-47
2023/04/09 04:21:41;;;;;;;62.45;31.15;;;7.20;65.50;;;2.65;100.00;95977.06;5003659;28;20025;-47
2023/04/09 04:24:06;;;;;;;58.13;28.92;;;7.20;65.50;;;2.71;100.00;95965.72;5010960;28;20104;-47
2023/04/09 04:26:32;;;;;;;57.08;29.60;;;7.30;65.60;;;2.77;100.00;95967.53;5009876;28;20098;-47
2023/04/09 04:28:58;;;;;;;51.17;27.27;;;7.40;65.60;;;2.77;100.00;95970.97;5010833;28;20025;-47
2023/04/09 04:31:24;;;;;;;45.30;26.05;;;7.40;65.50;;;2.81;100.00;95978.44;5012081;28;20484;-47
2023/04/09 04:33:50;;;;;;;53.42;27.35;;;7.50;65.50;;;2.81;100.00;95981.88;5013637;28;20030;-47
2023/04/09 04:36:15;;;;;;;49.05;27.33;;;7.50;65.40;;;2.83;100.00;95986.94;5013988;28;20118;-47
2023/04/09 04:38:41;;;;;;;50.97;27.45;;;7.60;65.30;;;2.83;100.00;95989.56;5013679;28;20028;-47
2023/04/09 04:41:09;;;;;;;49.60;26.48;;;7.60;65.30;;;2.81;100.00;95989.75;5014023;28;20446;-47
2023/04/09 04:43:35;;;;;;;47.63;26.05;;;7.60;65.30;;;2.83;100.00;95990.38;5014429;28;20024;-47
2023/04/09 04:46:01;;;;;;;45.55;24.30;;;7.60;65.30;;;2.85;100.00;95995.41;5013325;28;20017;-47
2023/04/09 04:48:28;;;;;;;43.58;25.17;;;7.60;65.30;;;2.84;100.00;95997.25;5013800;28;20036;-47
2023/04/09 04:51:00;;;;;;;43.75;24.70;;;7.60;65.20;;;2.85;100.00;95998.88;5013518;28;20028;-47
2023/04/09 04:53:26;;;;;;;40.00;23.30;;;7.70;65.90;;;2.79;100.00;96002.34;5013771;28;20029;-50
2023/04/09 04:55:52;;;;;;;39.13;22.55;;;7.60;64.90;;;2.77;100.00;96001.72;5013880;28;20045;-49
2023/04/09 04:58:18;;;;;;;38.40;22.90;;;7.60;64.90;;;2.70;100.00;96001.75;5012989;28;20480;-48
2023/04/09 05:00:45;;;;;;;39.17;23.02;;;7.50;64.70;;;2.65;100.00;96003.34;5004445;28;20090;-47
2023/04/09 05:03:12;;;;;;;41.67;23.10;;;7.50;64.70;;;2.55;100.00;96003.78;5004473;28;20018;-47
2023/04/09 05:05:38;;;;;;;45.95;25.08;;;7.50;64.70;;;2.46;100.00;96005.78;5008431;28;20026;-47
2023/04/09 05:08:04;;;;;;;42.45;23.75;;;7.40;64.60;;;2.47;100.00;96003.97;4993604;28;20060;-50
2023/04/09 05:10:30;;;;;;;42.95;24.70;;;7.40;64.60;;;2.45;100.00;96009.44;5013737;28;20021;-49
2023/04/09 05:12:56;;;;;;;47.13;25.13;;;7.30;64.50;;;2.46;100.00;96008.44;5012374;28;20037;-47
2023/04/09 05:15:22;;;;;;;49.42;26.15;;;7.40;64.80;;;2.53;100.00;96003.97;5012816;28;20025;-47
2023/04/09 05:17:48;;;;;;;48.90;26.10;;;7.40;65.70;;;2.56;100.00;96008.00;5013823;28;20023;-47
2023/04/09 05:20:14;;;;;;;44.03;24.92;;;7.40;65.10;;;2.62;100.00;96009.03;5012716;28;20044;-47
2023/04/09 05:22:40;;;;;;;44.90;24.75;;;7.50;65.20;;;2.72;100.00;96004.16;5013429;28;20021;-47
2023/04/09 05:25:07;;;;;;;42.65;25.02;;;7.50;65.30;;;2.78;100.00;96005.97;5013834;28;20021;-49
2023/04/09 05:27:33;;;;;;;44.78;23.65;;;7.60;65.40;;;2.87;100.00;96015.25;5012677;28;20455;-47
2023/04/09 05:29:59;;;;;;;44.10;25.05;;;7.70;65.40;;;2.96;100.00;96007.97;5013573;28;20096;-47
2023/04/09 05:32:24;;;;;;;35.70;22.77;;;7.80;65.40;;;3.01;100.00;96008.16;5012056;28;20068;-48
2023/04/09 05:34:50;;;;;;;40.20;22.52;;;7.90;65.30;;;3.04;100.00;96009.56;5013444;28;20021;-49
2023/04/09 05:37:16;;;;;;;38.33;23.05;;;8.00;65.30;;;3.12;100.00;96007.50;5013265;28;20032;-47
2023/04/09 05:39:42;;;;;;;32.47;20.63;;;8.10;65.10;;;3.13;100.00;96009.13;5011157;28;20033;-48
2023/04/09 05:42:08;;;;;;;31.40;19.92;;;8.20;65.00;;;3.21;100.00;96010.72;5012947;28;20042;-47
2023/04/09 05:44:33;;;;;;;35.28;21.17;;;8.20;65.00;;;3.18;100.00;96006.69;5011831;28;20021;-47
2023/04/09 05:46:59;;;;;;;30.75;20.15;;;8.30;64.80;;;3.20;100.00;95996.75;5012955;28;20029;-47
2023/04/09 05:49:25;;;;;;;31.13;20.48;;;8.40;64.60;;;3.25;100.00;96004.81;5013176;28;20113;-48
2023/04/09 05:51:51;;;;;;;32.63;20.10;;;8.40;64.40;;;3.26;100.00;96003.03;4970413;28;24041;-51
2023/04/09 05:54:17;;;;;;;32.95;20.65;;;8.50;64.30;;;3.36;100.00;95998.13;5016069;28;20025;-48
2023/04/09 05:56:43;;;;;;;32.15;19.20;;;8.60;64.20;;;3.35;100.00;95999.13;5011906;28;20071;-48
2023/04/09 05:59:09;;;;;;;29.33;19.23;;;8.60;64.00;;;3.46;100.00;96006.38;5012910;28;20423;-50
2023/04/09 06:01:35;;;;;;;30.58;19.25;;;8.60;64.00;;;3.52;100.00;96002.09;5012788;28;20048;-47
2023/04/09 06:04:01;;;;;;;31.83;20.58;;;8.70;64.00;;;3.50;100.00;95990.16;5012108;28;20060;-49
2023/04/09 06:06:27;;;;;;;31.05;19.70;;;8.70;63.90;;;3.48;100.00;96003.53;4995018;28;20484;-50
2023/04/09 06:08:52;;;;;;;31.00;19.23;;;8.80;63.80;;;3.63;100.00;96004.06;5011322;28;20017;-51
2023/04/09 06:11:18;;;;;;;30.33;20.02;;;8.90;63.80;;;3.65;100.00;96007.31;5012659;28;20025;-49
2023/04/09 06:13:44;;;;;;;29.33;19.77;;;9.00;63.70;;;3.49;100.00;96007.78;5012745;28;20057;-51
2023/04/09 06:16:10;;;;;;;29.48;18.77;;;9.00;63.40;;;3.53;100.00;96005.53;5011788;28;20380;-51
2023/04/09 06:18:36;;;;;;;31.45;20.13;;;9.10;63.20;;;3.53;100.00;96008.19;5012376;28;20116;-51
2023/04/09 06:21:04;;;;;;;28.70;19.55;;;9.20;63.10;;;3.57;100.00;96001.47;5011866;28;20383;-50
2023/04/09 06:23:30;;;;;;;31.27;19.27;;;9.20;62.90;;;3.69;100.00;96010.31;5012302;28;20669;-46
2023/04/09 06:25:55;;;;;;;26.70;17.65;;;9.30;62.90;;;3.77;100.00;96006.66;5012229;28;20025;-51
2023/04/09 06:28:21;;;;;;;28.08;18.80;;;9.30;62.80;;;3.59;100.00;96009.97;5011527;28;20041;-49
2023/04/09 06:30:47;;;;;;;29.77;18.25;;;9.40;62.70;;;3.83;100.00;96009.25;5012616;28;20017;-50
2023/04/09 06:33:13;;;;;;;28.92;18.83;;;9.40;62.60;;;3.87;100.00;96007.00;5011054;28;20032;-52
2023/04/09 06:35:39;;;;;;;26.67;17.90;;;9.50;62.40;;;3.85;98.66;96016.91;5012457;28;20036;-49
2023/04/09 06:38:05;;;;;;;29.90;18.48;;;9.60;62.30;;;3.77;99.36;96006.66;5012214;28;20025;-52
2023/04/09 06:40:31;;;;;;;28.15;18.73;;;9.60;62.80;;;3.93;98.97;96014.84;5011394;28;20025;-47
2023/04/09 06:42:57;;;;;;;28.92;18.15;;;9.80;62.00;;;3.75;98.34;96004.22;5010353;28;20119;-47
2023/04/09 06:45:23;;;;;;;25.83;17.73;;;9.80;61.70;;;3.67;99.11;96005.28;5011491;28;20453;-51
2023/04/09 06:47:49;;;;;;;27.50;17.50;;;9.80;61.50;;;3.85;99.04;96011.66;5011467;28;20507;-51
2023/04/09 06:50:15;;;;;;;28.92;18.40;;;9.80;61.40;;;3.97;98.07;96017.06;5011219;28;20022;-50
2023/04/09 06:52:40;;;;;;;23.65;16.73;;;9.90;61.50;;;4.03;97.88;96014.38;5026606;28;20446;-51
2023/04/09 06:55:07;;;;;;;24.58;16.77;;;9.90;61.20;;;4.15;97.95;96017.97;5010889;28;20029;-48
2023/04/09 06:57:33;;;;;;;26.00;17.00;;;10.00;61.20;;;4.35;96.68;96024.91;5009320;28;20056;-47
2023/04/09 06:59:59;;;;;;;25.08;17.73;;;10.10;61.20;;;4.49;95.34;96023.00;5004808;28;20053;-47
2023/04/09 07:02:26;;;;;;;26.10;17.30;;;10.30;61.20;;;4.49;94.94;96015.09;4998962;28;20030;-48
2023/04/09 07:04:51;;;;;;;25.63;16.75;;;10.30;60.90;;;4.59;94.48;96013.56;5012020;28;20025;-48
2023/04/09 07:07:19;;;;;;;26.67;18.20;;;10.40;60.70;;;4.61;93.61;96018.66;5011634;28;20096;-49
2023/04/09 07:09:45;;;;;;;24.70;16.48;;;10.50;60.60;;;4.66;93.51;96024.06;5010537;28;20025;-54
2023/04/09 07:12:11;;;;;;;24.48;16.75;;;10.70;60.40;;;4.61;93.30;96010.72;5011731;28;20032;-50
2023/04/09 07:14:37;;;;;;;24.00;16.85;;;10.80;60.10;;;4.91;92.34;96010.84;5007090;28;20017;-50
2023/04/09 07:17:02;;;;;;;24.40;15.88;;;11.10;59.80;;;5.15;90.05;96011.03;5006135;28;20033;-48
2023/04/09 07:19:28;;;;;;;23.40;16.27;;;11.30;59.60;;;5.54;88.74;96007.09;5011408;28;20472;-54
2023/04/09 07:21:54;;;;;;;22.42;15.43;;;11.90;59.30;;;5.80;85.31;96019.19;5010909;28;20090;-53
2023/04/09 07:24:20;;;;;;;22.02;15.32;;;12.30;58.80;;;5.73;84.59;96015.81;5011591;28;20396;-47
2023/04/09 07:26:46;;;;;;;20.80;15.23;;;12.60;58.10;;;5.99;83.85;96014.69;5010553;28;20097;-47
2023/04/09 07:29:11;;;;;;;19.70;14.82;;;12.80;57.60;;;6.13;83.30;96016.09;5011410;28;20033;-47
2023/04/09 07:31:37;;;;;;;19.65;14.48;;;13.10;57.20;;;6.03;83.04;96013.22;5011532;28;20021;-50
2023/04/09 07:34:03;;;;;;;18.42;14.00;;;13.20;56.80;;;5.98;83.43;96008.59;5010226;28;20021;-47
2023/04/09 07:36:30;;;;;;;20.10;15.57;;;13.50;56.30;;;6.07;83.21;96014.38;5011613;28;20021;-48
2023/04/09 07:38:56;;;;;;;19.23;14.60;;;13.80;55.90;;;6.33;82.15;96009.72;5010163;28;20396;-47
2023/04/09 07:41:22;;;;;;;18.38;13.23;;;14.10;55.40;;;6.47;80.58;96011.94;5010020;28;20124;-49
2023/04/09 07:43:47;;;;;;;17.98;14.23;;;14.30;54.90;;;6.10;80.38;96021.03;5011505;28;20032;-50
2023/04/09 07:46:23;;;;;;;18.08;14.05;;;14.50;54.40;;;6.34;79.07;96027.22;5010379;28;20075;-48
2023/04/09 07:48:49;;;;;;;19.38;14.68;;;14.60;53.70;;;6.20;79.87;96029.22;5010733;28;20025;-47
2023/04/09 07:51:15;;;;;;;18.20;14.40;;;14.40;53.60;;;6.86;77.73;96033.53;5010443;28;20021;-48
2023/04/09 07:53:41;;;;;;;19.63;13.80;;;14.40;53.50;;;7.35;75.74;96026.09;5011106;28;20029;-50
2023/04/09 07:56:07;;;;;;;17.73;13.77;;;14.80;53.30;;;7.82;75.44;96025.19;5010983;28;20032;-49
2023/04/09 07:58:33;;;;;;;16.50;13.27;;;14.90;53.20;;;8.07;72.98;96028.31;5009607;28;20033;-47
2023/04/09 08:00:59;;;;;;;18.38;13.85;;;15.20;53.20;;;7.87;74.23;96031.41;5010926;28;20021;-49
2023/04/09 08:03:24;;;;;;;16.63;12.90;;;15.60;52.60;;;7.71;72.08;96026.84;5009965;28;20112;-50
2023/04/09 08:05:50;;;;;;;16.17;12.82;;;16.00;51.90;;;8.08;71.65;96029.09;5011579;28;20033;-48
2023/04/09 08:08:16;;;;;;;17.08;13.23;;;16.10;51.30;;;8.51;70.85;96039.19;5014327;28;20031;-49
2023/04/09 08:10:42;;;;;;;16.33;13.63;;;16.20;51.10;;;8.53;69.18;96033.66;5009634;28;20017;-49
2023/04/09 08:13:08;;;;;;;16.50;13.60;;;16.30;50.80;;;8.68;68.83;96033.09;5000926;28;20030;-48
2023/04/09 08:15:33;;;;;;;18.67;14.45;;;16.30;50.50;;;8.75;68.90;96031.09;5010939;28;20032;-49
2023/04/09 08:18:01;;;;;;;20.08;15.90;;;16.20;50.40;;;8.71;68.14;96040.56;5013958;28;20033;-48
2023/04/09 08:20:28;;;;;;;16.95;13.25;;;16.20;50.10;;;8.97;67.29;96042.59;5013750;28;20021;-51
2023/04/09 08:22:54;;;;;;;18.27;14.18;;;16.30;50.00;;;8.83;68.33;96041.28;5014549;28;20025;-48
2023/04/09 08:25:21;;;;;;;16.20;12.30;;;16.40;49.60;;;8.91;66.09;96034.78;5013218;28;20435;-50
2023/04/09 08:27:47;;;;;;;14.95;12.35;;;16.50;49.30;;;8.48;68.64;96028.25;5013850;28;20045;-50
2023/04/09 08:30:12;;;;;;;15.25;12.82;;;16.60;48.90;;;9.09;66.52;96031.88;5014032;28;20425;-49
2023/04/09 08:32:38;;;;;;;16.00;13.48;;;16.80;48.50;;;9.44;66.33;96036.06;5012430;28;20029;-48
2023/04/09 08:35:06;;;;;;;16.02;13.23;;;17.10;48.20;;;9.66;65.25;96031.56;5014361;28;20025;-48
2023/04/09 08:37:32;;;;;;;15.90;13.18;;;17.30;48.00;;;9.65;63.77;96035.28;5012634;28;20017;-48
2023/04/09 08:39:58;;;;;;;14.40;12.13;;;17.40;47.50;;;9.68;64.61;96034.78;5009304;28;20535;-47
2023/04/09 08:42:24;;;;;;;16.92;12.98;;;17.50;47.10;;;9.93;63.84;96038.78;4994136;28;20045;-49
2023/04/09 08:44:50;;;;;;;14.68;12.18;;;17.70;46.90;;;10.30;63.27;96040.81;4997674;28;20381;-48
2023/04/09 08:47:19;;;;;;;15.43;13.05;;;17.80;46.70;;;10.29;63.23;96040.00;5014054;28;20029;-48
2023/04/09 08:49:47;;;;;;;14.88;12.55;;;17.90;46.30;;;10.65;61.33;96043.81;5012758;28;20025;-48
2023/04/09 08:52:15;;;;;;;14.13;12.38;;;18.10;46.10;;;10.77;61.30;96053.50;5013275;28;20037;-48
2023/04/09 08:54:41;;;;;;;15.15;12.80;;;18.30;45.80;;;10.94;60.77;96051.50;5014392;28;20013;-50
2023/04/09 08:57:07;;;;;;;15.77;12.45;;;18.50;45.60;;;10.88;58.95;96044.53;5021662;28;20553;-48
2023/04/09 08:59:36;;;;;;;15.27;12.85;;;18.60;45.20;;;10.35;60.48;96047.00;4993957;28;20408;-48
2023/04/09 09:02:11;;;;;;;15.10;12.60;;;18.70;44.50;;;10.52;60.42;96051.41;4994048;28;20025;-48
2023/04/09 09:04:46;;;;;;;14.45;12.77;;;18.80;44.00;;;10.82;58.34;96049.00;5012198;28;20025;-48
2023/04/09 09:07:13;;;;;;;13.70;11.88;;;18.90;43.80;;;10.78;57.35;96060.41;5013984;28;20025;-49
2023/04/09 09:09:56;;;;;;;14.93;12.70;;;19.00;43.40;;;10.38;58.78;96057.16;5011032;28;20025;-50
2023/04/09 09:12:50;;;;;;;15.13;12.15;;;19.00;42.90;;;10.79;58.66;96056.72;5004267;28;20025;-51
2023/04/09 09:15:28;;;;;;;14.10;12.38;;;19.00;42.80;;;10.56;58.63;96052.50;4994068;28;20107;-48
2023/04/09 09:17:58;;;;;;;15.07;12.43;;;19.10;42.70;;;10.27;58.68;96063.41;4994037;28;20377;-48
2023/04/09 09:20:26;;;;;;;15.93;13.00;;;19.10;42.50;;;9.51;61.51;96060.63;4993979;28;20026;-48
2023/04/09 09:22:55;;;;;;;15.35;12.95;;;19.10;42.10;;;9.50;61.20;96061.69;5013661;28;20021;-51
2023/04/09 09:25:24;;;;;;;14.50;12.35;;;19.00;41.80;;;10.25;60.92;96067.34;5013331;28;20435;-48
2023/04/09 09:27:51;;;;;;;14.52;12.40;;;18.90;41.90;;;10.17;58.80;96065.94;5012854;28;20029;-49
2023/04/09 09:30:26;;;;;;;14.27;12.20;;;18.90;41.80;;;9.68;61.31;96063.22;5013129;28;20091;-49
2023/04/09 09:33:12;;;;;;;17.90;13.80;;;18.90;41.60;;;9.93;60.50;96060.91;5012409;28;20094;-47
2023/04/09 09:35:53;;;;;;;14.65;12.80;;;18.90;41.50;;;10.15;60.56;96060.88;5012399;28;20040;-48
2023/04/09 09:38:20;;;;;;;16.13;13.30;;;18.90;41.30;;;9.68;59.11;96063.22;5011134;28;20028;-49
2023/04/09 09:40:48;;;;;;;16.15;12.93;;;18.80;41.30;;;9.76;61.30;96046.03;5011830;28;20029;-48
2023/04/09 09:43:14;;;;;;;15.27;12.18;;;18.80;41.20;;;10.46;59.39;96052.41;5012528;28;20080;-48
2023/04/09 09:45:42;;;;;;;15.18;12.55;;;18.80;41.30;;;10.30;57.82;96046.13;5012393;28;20021;-48
2023/04/09 09:48:13;;;;;;;13.65;11.75;;;18.90;41.10;;;10.53;59.36;96055.66;5012667;28;20496;-51
2023/04/09 09:50:41;;;;;;;13.73;12.20;;;19.00;41.00;;;11.31;57.39;96040.00;5011000;28;20100;-52
2023/04/09 09:53:10;;;;;;;15.88;12.57;;;19.10;41.20;;;11.50;55.81;96035.88;5012956;28;20037;-50
2023/04/09 09:55:49;;;;;;;14.80;12.45;;;19.30;41.10;;;11.84;54.86;96043.47;5012379;28;20458;-50
2023/04/09 09:58:52;;;;;;;14.82;11.95;;;19.50;40.90;;;11.58;55.25;96035.34;5010708;28;20057;-50
2023/04/09 10:01:23;;;;;;;14.02;12.23;;;19.80;40.50;;;12.11;54.35;96042.56;5012408;28;20041;-50
2023/04/09 10:03:52;;;;;;;13.63;11.50;;;19.90;40.30;;;12.22;54.49;96044.16;5010724;28;20095;-48
2023/04/09 10:06:18;;;;;;;13.57;11.90;;;20.10;40.20;;;11.60;52.51;96034.31;5012787;28;20013;-49
2023/04/09 10:08:51;;;;;;;13.50;11.60;;;20.30;39.70;;;11.56;54.14;96039.34;5010686;28;20025;-50
2023/04/09 10:11:19;;;;;;;13.45;11.65;;;20.40;39.20;;;11.30;54.94;96036.53;5008005;28;20028;-48
2023/04/09 10:13:58;;;;;;;14.75;12.32;;;20.40;38.80;;;11.36;54.38;96040.06;5012795;28;20041;-48
2023/04/09 10:16:27;;;;;;;13.57;12.05;;;20.40;38.50;;;11.67;53.79;96046.34;5012171;28;20028;-50
2023/04/09 10:18:58;;;;;;;12.88;11.30;;;20.50;38.50;;;12.31;52.53;96033.78;5012244;28;20112;-50